Terminal Aerodrome Forecast
Issued by NWS

Home | Current Version | Previous Version | Text Only | Print | Product List | Glossary On
Versions: 1 2 3 4 5 6 7 8 9 10 11 12 13 14 15 16 17 18 19 20 21 22 23 24 25 26 27 28
891
FTUS44 KLIX 292346
TAFMCB
TAF
KMCB 292346Z 3000/3024 15011KT P6SM FEW045
     FM300500 16011KT P6SM OVC025
     FM300600 17011KT P6SM OVC015
      TEMPO 3007/3010 28018G30KT 2SM TSRA BKN015CB
     FM301200 18010KT 3SM -SHRA OVC020
     FM301800 21012KT P6SM SHRA VCTS OVC045CB=

USA.gov is the U.S. government's official web portal to all federal, state and local government web resources and services.